Time;durP1;ratioP1;P1;durP2;ratioP2;P2;SDS_P1;SDS_P2;PMS_P1;PMS_P2;Temp;Humidity;BMP_temperature;BMP_pressure;BME280_temperature;BME280_humidity;BME280_pressure;Samples;Min_cycle;Max_cycle;Signal;HPM_P1;HPM_P2
2022/07/11 00:00:14;;;;;;;2.73;1.63;;;15.20;99.90;;;;;;5075388;28;20679;-80
2022/07/11 00:02:41;;;;;;;1.90;1.50;;;15.20;99.90;;;;;;5075512;28;20193;-80
2022/07/11 00:05:08;;;;;;;2.93;1.77;;;15.10;99.90;;;;;;5075405;28;20615;-81
2022/07/11 00:07:35;;;;;;;4.53;1.60;;;15.10;99.90;;;;;;5075469;28;20236;-80
2022/07/11 00:10:02;;;;;;;3.00;1.80;;;15.00;99.90;;;;;;5075618;28;20196;-80
2022/07/11 00:12:30;;;;;;;6.23;1.60;;;14.80;99.90;;;;;;5075303;28;20192;-80
2022/07/11 00:14:57;;;;;;;4.93;1.87;;;14.80;99.90;;;;;;5075251;28;20202;-80
2022/07/11 00:17:24;;;;;;;3.70;1.90;;;14.70;99.90;;;;;;5075287;28;20603;-80
2022/07/11 00:19:50;;;;;;;3.30;1.80;;;14.60;99.90;;;;;;5075115;28;20603;-80
2022/07/11 00:22:18;;;;;;;4.60;1.60;;;14.60;99.90;;;;;;5075308;28;20224;-80
2022/07/11 00:24:44;;;;;;;4.93;1.70;;;14.60;99.90;;;;;;5075180;28;20203;-80
2022/07/11 00:27:12;;;;;;;3.10;1.80;;;14.50;99.90;;;;;;5075135;28;20201;-80
2022/07/11 00:29:40;;;;;;;2.87;1.80;;;14.50;99.90;;;;;;5075288;28;20552;-80
2022/07/11 00:32:08;;;;;;;4.10;1.80;;;14.50;99.90;;;;;;5074950;28;20204;-80
2022/07/11 00:34:35;;;;;;;3.17;1.60;;;14.40;99.90;;;;;;5074773;28;20205;-80
2022/07/11 00:37:01;;;;;;;2.33;1.60;;;14.50;99.90;;;;;;5075030;28;20201;-79
2022/07/11 00:39:28;;;;;;;3.80;1.80;;;14.50;99.90;;;;;;5074871;28;20229;-80
2022/07/11 00:41:55;;;;;;;2.43;1.70;;;14.60;99.90;;;;;;5074736;28;20237;-80
2022/07/11 00:44:21;;;;;;;1.90;1.50;;;14.60;99.90;;;;;;5074796;28;20201;-80
2022/07/11 00:46:49;;;;;;;2.83;1.50;;;14.50;99.90;;;;;;5074715;28;20208;-79
2022/07/11 00:49:16;;;;;;;2.17;1.63;;;14.50;99.90;;;;;;5074570;28;20258;-80
2022/07/11 00:51:43;;;;;;;2.20;1.50;;;14.60;99.90;;;;;;5074738;28;20204;-80
2022/07/11 00:54:11;;;;;;;2.73;2.10;;;14.60;99.90;;;;;;5074578;28;20270;-80
2022/07/11 00:56:39;;;;;;;2.53;1.53;;;14.70;99.90;;;;;;5074588;28;20231;-80
2022/07/11 00:59:05;;;;;;;2.43;1.83;;;14.70;99.90;;;;;;5074451;28;20197;-80
2022/07/11 01:01:34;;;;;;;5.87;1.90;;;14.60;99.90;;;;;;5074265;28;20221;-80
2022/07/11 01:04:03;;;;;;;2.83;1.57;;;14.60;99.90;;;;;;5074438;28;20193;-80
2022/07/11 01:06:29;;;;;;;3.10;1.60;;;14.60;99.90;;;;;;5074399;28;20196;-80
2022/07/11 01:08:56;;;;;;;2.33;1.80;;;14.50;99.90;;;;;;5074152;28;20197;-80
2022/07/11 01:11:23;;;;;;;4.07;1.83;;;14.50;99.90;;;;;;5074116;28;20615;-80
2022/07/11 01:13:50;;;;;;;3.10;1.87;;;14.50;99.90;;;;;;5074339;28;20197;-80
2022/07/11 01:16:18;;;;;;;4.50;1.67;;;14.50;99.90;;;;;;5074005;28;20205;-80
2022/07/11 01:18:46;;;;;;;2.30;1.50;;;14.50;99.90;;;;;;5074227;28;20621;-80
2022/07/11 01:21:30;;;;;;;2.07;1.60;;;14.50;99.90;;;;;;5073990;28;20224;-80
2022/07/11 01:23:59;;;;;;;2.03;1.80;;;14.50;99.90;;;;;;5072196;28;20201;-79
2022/07/11 01:26:27;;;;;;;2.77;1.90;;;14.40;99.90;;;;;;5074141;28;20208;-80
2022/07/11 01:28:55;;;;;;;2.50;1.63;;;14.50;99.90;;;;;;5073974;28;20197;-79
2022/07/11 01:31:22;;;;;;;3.10;1.67;;;14.50;99.90;;;;;;5074094;28;20197;-80
2022/07/11 01:33:49;;;;;;;3.97;1.70;;;14.50;99.90;;;;;;5073965;28;20193;-80
2022/07/11 01:36:16;;;;;;;4.90;2.10;;;14.50;99.90;;;;;;5073933;28;20736;-80
2022/07/11 01:38:42;;;;;;;2.63;1.73;;;14.50;99.90;;;;;;5072812;28;20707;-79
2022/07/11 01:41:10;;;;;;;4.63;2.00;;;14.50;99.90;;;;;;5073389;28;20626;-80
2022/07/11 01:43:37;;;;;;;3.83;2.17;;;14.50;99.90;;;;;;5073499;28;20204;-80
2022/07/11 01:46:04;;;;;;;1.93;1.60;;;14.40;99.90;;;;;;5073475;28;20661;-80
2022/07/11 01:48:31;;;;;;;2.73;1.83;;;14.40;99.90;;;;;;5073601;28;20201;-80
2022/07/11 01:50:57;;;;;;;2.07;1.53;;;14.30;99.90;;;;;;5073535;28;20201;-80
2022/07/11 01:53:24;;;;;;;3.73;1.87;;;14.40;99.90;;;;;;5073417;28;20200;-80
2022/07/11 01:55:51;;;;;;;1.80;1.70;;;14.40;99.90;;;;;;5073236;28;20197;-80
2022/07/11 01:58:19;;;;;;;3.00;1.60;;;14.50;99.90;;;;;;5073471;28;20193;-79
2022/07/11 02:00:46;;;;;;;2.67;1.57;;;14.40;99.90;;;;;;5073343;28;20278;-80
2022/07/11 02:03:13;;;;;;;2.20;1.50;;;14.50;99.90;;;;;;5073292;28;20204;-80
2022/07/11 02:05:39;;;;;;;4.60;1.83;;;14.50;99.90;;;;;;5073245;28;20279;-80
2022/07/11 02:08:13;;;;;;;2.80;1.77;;;14.50;99.90;;;;;;5073248;28;20204;-80
2022/07/11 02:10:45;;;;;;;4.03;1.87;;;14.50;99.90;;;;;;5073483;28;20201;-80
2022/07/11 02:13:13;;;;;;;1.70;1.60;;;14.50;99.90;;;;;;5073031;28;20699;-81
2022/07/11 02:15:41;;;;;;;1.90;1.80;;;14.50;99.90;;;;;;5073101;28;20251;-80
2022/07/11 02:18:09;;;;;;;3.27;1.60;;;14.50;99.90;;;;;;5073011;28;20201;-80
2022/07/11 02:20:36;;;;;;;2.03;1.80;;;14.40;99.90;;;;;;5072887;28;20266;-80
2022/07/11 02:23:03;;;;;;;3.63;1.90;;;14.40;99.90;;;;;;5072903;28;20526;-80
2022/07/11 02:25:30;;;;;;;2.07;1.80;;;14.40;99.90;;;;;;5072968;28;20205;-80
2022/07/11 02:27:57;;;;;;;3.13;1.77;;;14.40;99.90;;;;;;5073629;28;20561;-80
2022/07/11 02:30:24;;;;;;;2.77;1.80;;;14.40;99.90;;;;;;5074863;28;20200;-80
2022/07/11 02:32:52;;;;;;;3.70;2.10;;;14.40;99.90;;;;;;5075365;28;20714;-80
2022/07/11 02:35:19;;;;;;;2.33;1.70;;;14.40;99.90;;;;;;5073121;28;20594;-80
2022/07/11 02:37:46;;;;;;;3.00;1.97;;;14.40;99.90;;;;;;5073380;28;20204;-79
2022/07/11 02:40:13;;;;;;;2.30;1.73;;;14.40;99.90;;;;;;5073110;28;20200;-80
2022/07/11 02:42:40;;;;;;;3.10;2.17;;;14.40;99.90;;;;;;5072838;28;20270;-80
2022/07/11 02:45:08;;;;;;;2.40;1.80;;;14.40;99.90;;;;;;5072939;28;20197;-80
2022/07/11 02:47:36;;;;;;;2.23;1.77;;;14.50;99.90;;;;;;5073535;28;20193;-80
2022/07/11 02:50:06;;;;;;;2.90;1.67;;;14.50;99.90;;;;;;5073436;28;20199;-80
2022/07/11 02:52:32;;;;;;;2.10;1.80;;;14.50;99.90;;;;;;5077891;28;20201;-80
2022/07/11 02:54:59;;;;;;;2.90;1.90;;;14.60;99.90;;;;;;5077743;28;20238;-80
2022/07/11 02:57:25;;;;;;;4.10;1.90;;;14.60;99.90;;;;;;5078733;28;20197;-78
2022/07/11 02:59:52;;;;;;;2.87;2.10;;;14.60;99.90;;;;;;5077132;28;20200;-80
2022/07/11 03:02:19;;;;;;;7.00;2.30;;;14.60;99.90;;;;;;5076521;28;20224;-80
2022/07/11 03:04:46;;;;;;;1.93;1.60;;;14.60;99.90;;;;;;5077000;28;20258;-81
2022/07/11 03:07:14;;;;;;;2.73;1.70;;;14.60;99.90;;;;;;5076800;28;20656;-80
2022/07/11 03:09:41;;;;;;;4.07;2.03;;;14.60;99.90;;;;;;5076645;28;20247;-80
2022/07/11 03:12:08;;;;;;;2.37;2.17;;;14.60;99.90;;;;;;5076538;28;20197;-80
2022/07/11 03:14:34;;;;;;;3.67;2.03;;;14.60;99.90;;;;;;5076279;28;20710;-80
2022/07/11 03:17:01;;;;;;;3.20;2.20;;;14.60;99.90;;;;;;5076327;28;20193;-80
2022/07/11 03:19:28;;;;;;;2.27;1.90;;;14.60;99.90;;;;;;5076424;28;20197;-80
2022/07/11 03:21:55;;;;;;;2.80;2.07;;;14.60;99.90;;;;;;5076280;28;20278;-80
2022/07/11 03:24:22;;;;;;;4.53;2.30;;;14.60;99.90;;;;;;5076176;28;20196;-80
2022/07/11 03:26:49;;;;;;;2.93;2.20;;;14.60;99.90;;;;;;5076040;28;20644;-80
2022/07/11 03:29:17;;;;;;;2.83;2.23;;;14.60;99.90;;;;;;5075998;28;20209;-80
2022/07/11 03:31:44;;;;;;;3.00;2.40;;;14.60;99.90;;;;;;5076207;28;20228;-79
2022/07/11 03:34:10;;;;;;;2.87;2.60;;;14.60;99.90;;;;;;5076134;28;20277;-80
2022/07/11 03:36:37;;;;;;;4.00;2.60;;;14.50;99.90;;;;;;5076048;28;20197;-80
2022/07/11 03:39:04;;;;;;;4.23;2.30;;;14.60;99.90;;;;;;5075974;28;20229;-80
2022/07/11 03:41:32;;;;;;;3.77;2.70;;;14.50;99.90;;;;;;5075793;28;20221;-80
2022/07/11 03:43:58;;;;;;;3.23;2.33;;;14.50;99.90;;;;;;5075762;28;20197;-80
2022/07/11 03:46:25;;;;;;;4.20;2.70;;;14.60;99.90;;;;;;5075750;28;20231;-80
2022/07/11 03:48:51;;;;;;;2.67;2.47;;;14.70;99.90;;;;;;5075827;28;20193;-80
2022/07/11 03:51:18;;;;;;;4.37;2.90;;;14.70;99.90;;;;;;5075862;28;20197;-80
2022/07/11 03:53:45;;;;;;;2.90;2.57;;;14.70;99.90;;;;;;5075613;28;20603;-80
2022/07/11 03:56:11;;;;;;;2.70;2.50;;;14.70;99.90;;;;;;5075449;28;20208;-80
2022/07/11 03:58:39;;;;;;;3.33;2.47;;;14.70;99.90;;;;;;5075572;28;20197;-80
2022/07/11 04:01:06;;;;;;;3.97;2.90;;;14.70;99.90;;;;;;5075066;28;20201;-80
2022/07/11 04:03:33;;;;;;;2.90;2.70;;;14.70;99.90;;;;;;5075704;28;20204;-80
2022/07/11 04:05:59;;;;;;;4.30;3.07;;;14.70;99.90;;;;;;5075501;28;20193;-80
2022/07/11 04:08:26;;;;;;;3.00;2.70;;;14.70;99.90;;;;;;5075304;28;20614;-80
2022/07/11 04:10:52;;;;;;;3.87;2.57;;;14.80;99.90;;;;;;5075253;28;20242;-80
2022/07/11 04:13:19;;;;;;;3.10;2.80;;;14.80;99.90;;;;;;5075565;28;20598;-80
2022/07/11 04:15:47;;;;;;;4.53;2.90;;;14.80;99.90;;;;;;5075833;28;20201;-78
2022/07/11 04:18:13;;;;;;;4.07;2.73;;;14.70;99.90;;;;;;5075510;28;20196;-80
2022/07/11 04:20:40;;;;;;;2.73;2.50;;;14.80;99.90;;;;;;5075226;28;20205;-80
2022/07/11 04:23:07;;;;;;;3.10;2.80;;;14.80;99.90;;;;;;5075124;28;20254;-80
2022/07/11 04:25:34;;;;;;;3.57;2.70;;;14.90;99.90;;;;;;5074994;28;20258;-80
2022/07/11 04:28:01;;;;;;;3.97;3.10;;;14.90;99.90;;;;;;5074925;28;20659;-80
2022/07/11 04:30:28;;;;;;;3.07;2.87;;;14.90;99.90;;;;;;5075206;28;20242;-80
2022/07/11 04:32:59;;;;;;;3.50;3.20;;;14.90;99.90;;;;;;5075074;28;20205;-80
2022/07/11 04:35:27;;;;;;;3.03;2.67;;;14.90;99.90;;;;;;5075074;28;20193;-80
2022/07/11 04:37:54;;;;;;;3.73;2.83;;;14.90;99.90;;;;;;5074408;28;20291;-79
2022/07/11 04:40:23;;;;;;;3.60;2.80;;;15.00;99.90;;;;;;5074731;28;20205;-80
2022/07/11 04:42:50;;;;;;;3.73;3.33;;;14.90;99.90;;;;;;5074747;28;20239;-80
2022/07/11 04:45:17;;;;;;;3.90;2.87;;;15.10;99.90;;;;;;5074800;28;20665;-80
2022/07/11 04:47:43;;;;;;;3.47;2.80;;;15.10;99.90;;;;;;5074775;28;20200;-80
2022/07/11 04:50:11;;;;;;;3.03;2.80;;;15.10;99.90;;;;;;5074670;28;20250;-80
2022/07/11 04:52:38;;;;;;;3.10;2.80;;;15.20;99.90;;;;;;5074532;28;20197;-80
2022/07/11 04:55:06;;;;;;;2.77;2.57;;;15.20;99.90;;;;;;5074344;28;20247;-80
2022/07/11 04:57:32;;;;;;;3.17;2.87;;;15.20;99.90;;;;;;5074420;28;20652;-80
2022/07/11 05:00:00;;;;;;;3.20;3.00;;;15.30;99.90;;;;;;5074388;28;20662;-80
2022/07/11 05:02:26;;;;;;;3.10;2.90;;;15.30;99.90;;;;;;5074361;28;20303;-80
2022/07/11 05:04:54;;;;;;;2.83;2.40;;;15.30;99.90;;;;;;5074376;28;20247;-80
2022/07/11 05:07:22;;;;;;;3.20;2.33;;;15.40;99.90;;;;;;5074051;28;20203;-79
2022/07/11 05:09:48;;;;;;;3.30;2.43;;;15.40;99.90;;;;;;5074355;28;20607;-80
2022/07/11 05:12:15;;;;;;;2.78;2.50;;;15.50;99.90;;;;;;5074185;28;20201;-80
2022/07/11 05:14:42;;;;;;;2.87;2.67;;;15.50;99.90;;;;;;5073456;28;20201;-80
2022/07/11 05:17:08;;;;;;;4.25;2.67;;;15.60;99.90;;;;;;5074118;28;20270;-80
2022/07/11 05:19:35;;;;;;;3.88;2.63;;;15.60;99.90;;;;;;5074053;28;20318;-80
2022/07/11 05:22:01;;;;;;;2.87;2.67;;;15.70;99.90;;;;;;5073774;28;20274;-80
2022/07/11 05:24:29;;;;;;;2.50;2.30;;;15.70;99.90;;;;;;5073857;28;20205;-80
2022/07/11 05:26:56;;;;;;;2.92;2.63;;;15.70;99.90;;;;;;5074022;28;20197;-80
2022/07/11 05:29:23;;;;;;;2.90;2.58;;;15.70;99.90;;;;;;5073772;28;20656;-80
2022/07/11 05:31:52;;;;;;;4.65;2.70;;;15.70;99.90;;;;;;5073734;28;20304;-75
2022/07/11 05:34:19;;;;;;;2.95;2.75;;;15.60;99.90;;;;;;5073512;28;20197;-73
2022/07/11 05:36:47;;;;;;;3.10;2.80;;;15.60;99.90;;;;;;5073299;28;20291;-74
2022/07/11 05:39:15;;;;;;;3.35;3.05;;;15.60;99.90;;;;;;5073168;28;20236;-74
2022/07/11 05:41:43;;;;;;;2.73;2.50;;;15.80;99.90;;;;;;5073364;28;20197;-73
2022/07/11 05:44:09;;;;;;;3.67;3.37;;;15.80;99.90;;;;;;5073217;28;20603;-73
2022/07/11 05:46:39;;;;;;;2.83;2.63;;;15.80;99.90;;;;;;5073147;28;20192;-73
2022/07/11 05:49:06;;;;;;;4.00;2.60;;;15.90;99.90;;;;;;5073071;28;20228;-74
2022/07/11 05:51:32;;;;;;;2.90;2.60;;;16.00;99.90;;;;;;5073219;28;20205;-74
2022/07/11 05:53:59;;;;;;;4.15;2.97;;;16.00;99.90;;;;;;5072854;28;20343;-73
2022/07/11 05:56:26;;;;;;;2.80;2.60;;;15.90;99.90;;;;;;5073353;28;20203;-73
2022/07/11 05:58:54;;;;;;;3.53;3.05;;;16.00;99.90;;;;;;5073253;28;20625;-73
2022/07/11 06:01:22;;;;;;;3.20;2.80;;;16.10;99.90;;;;;;5073138;28;20203;-74
2022/07/11 06:03:48;;;;;;;3.40;3.10;;;16.20;99.90;;;;;;5072927;28;20297;-74
2022/07/11 06:06:16;;;;;;;2.95;2.75;;;16.30;99.90;;;;;;5073034;28;20717;-73
2022/07/11 06:08:43;;;;;;;3.40;3.10;;;16.30;99.90;;;;;;5073274;28;20592;-72
2022/07/11 06:11:11;;;;;;;3.55;3.25;;;16.40;99.90;;;;;;5073004;28;20293;-74
2022/07/11 06:13:38;;;;;;;3.17;2.88;;;16.50;99.90;;;;;;5072947;28;20207;-72
2022/07/11 06:16:07;;;;;;;3.20;2.90;;;16.60;99.90;;;;;;5072888;28;20648;-75
2022/07/11 06:18:34;;;;;;;3.53;2.85;;;16.70;99.90;;;;;;5073074;28;20200;-74
2022/07/11 06:21:01;;;;;;;2.92;2.72;;;16.70;99.90;;;;;;5072932;28;20717;-74
2022/07/11 06:23:28;;;;;;;3.45;2.55;;;16.80;99.90;;;;;;5072866;28;20225;-75
2022/07/11 06:25:55;;;;;;;3.03;2.83;;;16.80;99.90;;;;;;5072722;28;20287;-73
2022/07/11 06:28:21;;;;;;;3.00;2.70;;;16.90;99.90;;;;;;5072793;28;20251;-73
2022/07/11 06:30:48;;;;;;;2.88;2.58;;;16.80;99.90;;;;;;5072925;28;20200;-73
2022/07/11 06:33:17;;;;;;;3.10;2.45;;;16.90;99.90;;;;;;5073231;28;20599;-73
2022/07/11 06:35:44;;;;;;;2.70;2.50;;;17.00;99.90;;;;;;5072889;28;20201;-74
2022/07/11 06:38:11;;;;;;;3.65;2.20;;;16.90;99.90;;;;;;5072933;28;20236;-74
2022/07/11 06:40:38;;;;;;;2.78;2.47;;;17.00;99.90;;;;;;5089683;28;20246;-74
2022/07/11 06:43:06;;;;;;;3.15;2.42;;;17.30;99.90;;;;;;5072422;28;20745;-74
2022/07/11 06:45:33;;;;;;;2.40;2.20;;;17.60;99.90;;;;;;5072460;28;20730;-74
2022/07/11 06:47:59;;;;;;;2.70;2.42;;;17.40;99.90;;;;;;5072725;28;20229;-74
2022/07/11 06:50:27;;;;;;;2.40;2.00;;;17.30;99.90;;;;;;5072557;28;20193;-74
2022/07/11 06:52:54;;;;;;;3.13;2.05;;;17.40;99.90;;;;;;5072759;28;20274;-75
2022/07/11 06:55:21;;;;;;;2.08;1.90;;;17.30;99.90;;;;;;5071585;28;20197;-73
2022/07/11 06:57:49;;;;;;;2.13;1.88;;;17.30;99.90;;;;;;5071969;28;20204;-74
2022/07/11 07:00:17;;;;;;;2.85;2.28;;;17.20;99.90;;;;;;5072345;28;20672;-75
2022/07/11 07:02:44;;;;;;;4.05;1.98;;;17.40;99.90;;;;;;5071355;28;20217;-73
2022/07/11 07:05:11;;;;;;;1.90;1.80;;;17.30;99.90;;;;;;5072137;28;20235;-73
2022/07/11 07:07:39;;;;;;;1.90;1.70;;;17.30;99.90;;;;;;5075181;28;20197;-80
2022/07/11 07:10:07;;;;;;;1.98;1.83;;;17.10;99.90;;;;;;5079546;28;20252;-79
2022/07/11 07:12:38;;;;;;;2.30;2.08;;;16.90;99.90;;;;;;5073449;28;20326;-80
2022/07/11 07:15:05;;;;;;;2.55;2.33;;;16.80;99.90;;;;;;5076364;28;20197;-79
2022/07/11 07:17:32;;;;;;;2.28;2.00;;;17.00;99.90;;;;;;5073860;28;20211;-79
2022/07/11 07:19:59;;;;;;;2.00;1.90;;;16.70;99.90;;;;;;5072573;28;20201;-79
2022/07/11 07:22:25;;;;;;;2.00;1.90;;;17.00;99.90;;;;;;5072353;28;20197;-78
2022/07/11 07:24:53;;;;;;;1.77;1.67;;;17.20;99.90;;;;;;5072311;28;20201;-79
2022/07/11 07:27:20;;;;;;;3.20;1.92;;;17.30;99.90;;;;;;5072505;28;20623;-80
2022/07/11 07:29:47;;;;;;;2.20;2.00;;;17.70;99.90;;;;;;5072563;28;20530;-78
2022/07/11 07:32:14;;;;;;;2.20;2.00;;;17.70;99.90;;;;;;5072386;28;20212;-79
2022/07/11 07:34:40;;;;;;;2.80;1.90;;;17.80;99.90;;;;;;5072315;28;20193;-79
2022/07/11 07:37:07;;;;;;;1.92;1.70;;;17.90;99.90;;;;;;5074002;28;20193;-79
2022/07/11 07:39:34;;;;;;;1.73;1.63;;;17.90;99.90;;;;;;5075704;28;20290;-79
2022/07/11 07:42:02;;;;;;;2.50;1.45;;;18.10;99.90;;;;;;5075871;28;20197;-79
2022/07/11 07:44:28;;;;;;;2.50;1.92;;;18.10;99.90;;;;;;5075951;28;20316;-78
2022/07/11 07:46:56;;;;;;;1.90;1.80;;;18.00;99.90;;;;;;5075888;28;20246;-79
2022/07/11 07:49:22;;;;;;;2.45;1.75;;;17.90;99.90;;;;;;5075842;28;20207;-78
2022/07/11 07:51:49;;;;;;;2.60;1.60;;;17.90;99.90;;;;;;5075711;28;20283;-79
2022/07/11 07:54:16;;;;;;;3.38;1.40;;;18.10;99.90;;;;;;5075708;28;20287;-79
2022/07/11 07:56:42;;;;;;;3.05;1.40;;;18.00;99.90;;;;;;5075607;28;20200;-79
2022/07/11 07:59:11;;;;;;;3.25;1.48;;;17.80;99.90;;;;;;5075588;28;20303;-79
2022/07/11 08:01:38;;;;;;;2.08;1.60;;;17.70;99.90;;;;;;5074475;28;20192;-78
2022/07/11 08:04:06;;;;;;;2.05;1.88;;;17.90;99.90;;;;;;5075536;28;20235;-79
2022/07/11 08:06:34;;;;;;;3.53;1.83;;;17.90;99.90;;;;;;5075407;28;20201;-79
2022/07/11 08:09:01;;;;;;;2.65;1.88;;;17.90;99.90;;;;;;5075886;28;20197;-79
2022/07/11 08:11:28;;;;;;;3.55;2.50;;;17.80;99.90;;;;;;5075456;28;20205;-78
2022/07/11 08:13:55;;;;;;;3.70;2.13;;;17.80;99.90;;;;;;5075430;28;20197;-79
2022/07/11 08:16:23;;;;;;;2.55;2.35;;;18.10;99.90;;;;;;5075241;28;20227;-79
2022/07/11 08:18:50;;;;;;;2.70;2.50;;;18.20;99.90;;;;;;5075155;28;20201;-79
2022/07/11 08:21:16;;;;;;;3.88;2.88;;;18.20;99.90;;;;;;5075038;28;20197;-79
2022/07/11 08:23:43;;;;;;;3.92;2.47;;;18.50;99.90;;;;;;5074963;28;20707;-78
2022/07/11 08:26:10;;;;;;;5.53;2.95;;;18.40;99.90;;;;;;5075314;28;20193;-79
2022/07/11 08:28:37;;;;;;;4.28;3.55;;;18.90;99.90;;;;;;5075024;28;20221;-79
2022/07/11 08:31:03;;;;;;;5.18;3.13;;;18.80;99.90;;;;;;5075058;28;20243;-79
2022/07/11 08:33:31;;;;;;;3.45;3.15;;;19.00;99.90;;;;;;5074802;28;20205;-79
2022/07/11 08:35:58;;;;;;;3.65;3.30;;;18.80;99.90;;;;;;5075279;28;20240;-79
2022/07/11 08:38:24;;;;;;;4.43;3.70;;;19.00;99.90;;;;;;5074764;28;20259;-79
2022/07/11 08:40:51;;;;;;;3.80;3.50;;;19.10;99.90;;;;;;5074926;28;20258;-79
2022/07/11 08:43:22;;;;;;;5.00;2.90;;;19.60;99.90;;;;;;5074868;28;20213;-79
2022/07/11 08:45:51;;;;;;;3.80;3.38;;;19.70;99.90;;;;;;5074915;28;20201;-78
2022/07/11 08:48:19;;;;;;;4.03;3.63;;;19.30;99.90;;;;;;5075218;28;20193;-80
2022/07/11 08:50:47;;;;;;;3.70;3.40;;;19.10;99.90;;;;;;5075325;28;20200;-79
2022/07/11 08:53:14;;;;;;;6.22;3.47;;;19.00;99.90;;;;;;5074796;28;20270;-78
2022/07/11 08:55:41;;;;;;;3.95;3.22;;;18.80;99.90;;;;;;5074676;28;20204;-78
2022/07/11 08:58:10;;;;;;;4.47;3.53;;;19.00;99.90;;;;;;5074502;28;20679;-79
2022/07/11 09:00:37;;;;;;;4.88;3.40;;;19.30;99.90;;;;;;5074363;28;20197;-79
2022/07/11 09:03:05;;;;;;;4.00;3.65;;;19.50;99.90;;;;;;5074456;28;20271;-79
2022/07/11 09:05:32;;;;;;;5.47;3.70;;;19.40;99.90;;;;;;5074553;28;20285;-80
2022/07/11 09:08:00;;;;;;;5.15;3.72;;;19.50;99.90;;;;;;5074365;28;20197;-78
2022/07/11 09:10:27;;;;;;;4.50;3.95;;;19.90;99.90;;;;;;5074258;28;20197;-78
2022/07/11 09:13:04;;;;;;;4.70;4.13;;;19.40;99.90;;;;;;5074089;28;20616;-78
2022/07/11 09:15:36;;;;;;;5.85;3.67;;;19.30;99.90;;;;;;5074613;28;20200;-79
2022/07/11 09:18:04;;;;;;;4.78;4.30;;;19.40;99.90;;;;;;5074086;28;20257;-79
2022/07/11 09:26:29;;;;;;;5.22;4.82;;;19.10;99.90;;;;;;5073860;28;20197;-79
2022/07/11 09:29:00;;;;;;;5.40;4.90;;;19.10;99.90;;;;;;5075560;28;20244;-80
2022/07/11 09:31:29;;;;;;;5.10;4.60;;;19.30;99.90;;;;;;5073963;28;20197;-79
2022/07/11 09:34:01;;;;;;;5.47;5.00;;;19.20;99.90;;;;;;5073723;28;20197;-78
2022/07/11 09:36:43;;;;;;;5.80;4.53;;;19.40;99.90;;;;;;5074737;28;20197;-79
2022/07/11 09:39:12;;;;;;;5.95;4.88;;;19.60;99.90;;;;;;5073732;28;20221;-79
2022/07/11 09:41:39;;;;;;;5.25;4.75;;;19.60;99.90;;;;;;5073505;28;20239;-79
2022/07/11 09:44:15;;;;;;;6.28;5.68;;;20.20;99.90;;;;;;5073916;28;20227;-79
2022/07/11 09:46:45;;;;;;;6.80;6.10;;;19.80;99.90;;;;;;5073464;28;20208;-79
2022/07/11 09:49:12;;;;;;;7.13;6.00;;;19.70;99.90;;;;;;5073599;28;20236;-78
2022/07/11 09:51:40;;;;;;;9.63;6.28;;;19.50;99.90;;;;;;5073548;28;20603;-79
2022/07/11 09:54:08;;;;;;;6.55;5.90;;;19.20;99.90;;;;;;5073460;28;20199;-79
2022/07/11 09:56:43;;;;;;;7.35;5.63;;;19.10;99.90;;;;;;5073366;28;20203;-79
2022/07/11 09:59:12;;;;;;;6.68;5.82;;;19.10;99.90;;;;;;5072759;28;20196;-79
2022/07/11 10:01:40;;;;;;;6.97;5.75;;;18.90;99.90;;;;;;5073417;28;20197;-79
2022/07/11 10:04:08;;;;;;;8.27;5.45;;;18.70;99.90;;;;;;5073383;28;20227;-79
2022/07/11 10:06:36;;;;;;;6.68;5.90;;;18.90;99.90;;;;;;5073395;28;20201;-80
2022/07/11 10:09:05;;;;;;;7.07;5.72;;;18.60;99.90;;;;;;5073834;28;20266;-79
2022/07/11 10:11:32;;;;;;;7.60;5.85;;;18.60;99.90;;;;;;5073777;28;20360;-79
2022/07/11 10:14:00;;;;;;;5.68;5.18;;;18.50;99.90;;;;;;5074342;28;20291;-78
2022/07/11 10:16:39;;;;;;;6.30;5.50;;;18.50;99.90;;;;;;5076678;28;20201;-79
2022/07/11 10:19:21;;;;;;;6.65;5.97;;;18.50;99.90;;;;;;5077267;28;20200;-79
2022/07/11 10:21:54;;;;;;;5.80;5.28;;;18.50;99.90;;;;;;5073088;28;20638;-79
2022/07/11 10:24:41;;;;;;;7.97;5.95;;;18.80;99.90;;;;;;5073167;28;20228;-79
2022/07/11 10:27:16;;;;;;;6.57;5.30;;;18.80;99.90;;;;;;5073061;28;20551;-79
2022/07/11 10:29:50;;;;;;;5.68;5.10;;;19.00;99.90;;;;;;5073035;28;20610;-79
2022/07/11 10:32:17;;;;;;;6.43;5.35;;;19.50;99.90;;;;;;5073093;28;20743;-79
2022/07/11 10:34:44;;;;;;;5.65;4.43;;;19.70;99.90;;;;;;5072728;28;20200;-79
2022/07/11 10:37:12;;;;;;;6.00;4.78;;;20.50;99.90;;;;;;5073120;28;20283;-79
2022/07/11 10:39:58;;;;;;;5.75;4.30;;;20.60;99.90;;;;;;5072763;28;20231;-79
2022/07/11 10:42:38;;;;;;;5.85;5.15;;;21.70;99.90;;;;;;5072905;28;20197;-79
2022/07/11 10:45:08;;;;;;;5.68;5.07;;;21.50;99.90;;;;;;5072544;28;20244;-79
2022/07/11 10:47:41;;;;;;;4.70;4.30;;;21.70;99.90;;;;;;5072806;28;20197;-79
2022/07/11 10:50:16;;;;;;;5.72;4.57;;;22.70;99.90;;;;;;5073093;28;20212;-79
2022/07/11 10:52:45;;;;;;;4.90;4.40;;;23.30;99.90;;;;;;5072862;28;20201;-79
2022/07/11 10:55:33;;;;;;;7.70;4.53;;;23.70;99.90;;;;;;5072608;28;20205;-79
2022/07/11 10:58:07;;;;;;;4.40;4.00;;;23.20;99.90;;;;;;5072766;28;20205;-79
2022/07/11 11:00:33;;;;;;;4.65;4.07;;;22.60;99.90;;;;;;5073342;28;20196;-79
2022/07/11 11:03:04;;;;;;;4.97;4.47;;;21.90;99.90;;;;;;5073309;28;20201;-79
2022/07/11 11:05:47;;;;;;;4.80;4.38;;;21.00;99.90;;;;;;5073380;28;20323;-79
2022/07/11 11:08:43;;;;;;;5.28;4.88;;;20.00;99.90;;;;;;5073534;28;20197;-79
2022/07/11 11:11:37;;;;;;;6.05;5.50;;;19.50;99.90;;;;;;5072906;28;20293;-79
2022/07/11 11:14:19;;;;;;;5.90;5.40;;;19.30;99.90;;;;;;5076398;28;20205;-79
2022/07/11 11:16:46;;;;;;;7.03;5.07;;;19.40;99.90;;;;;;5076256;28;20652;-78
2022/07/11 11:19:46;;;;;;;4.88;4.43;;;19.90;99.90;;;;;;5076505;28;20619;-78
2022/07/11 11:22:14;;;;;;;4.78;4.35;;;21.40;99.90;;;;;;5076407;28;20197;-79
2022/07/11 11:24:42;;;;;;;4.22;3.92;;;24.30;99.90;;;;;;5076494;28;20233;-79
2022/07/11 11:27:18;;;;;;;4.05;3.75;;;26.70;99.60;;;;;;5076433;28;20676;-79
2022/07/11 11:29:45;;;;;;;6.20;3.80;;;26.90;95.20;;;;;;5076364;28;20288;-80
2022/07/11 11:32:12;;;;;;;4.90;3.20;;;27.50;90.40;;;;;;5076213;28;20208;-80
2022/07/11 11:34:40;;;;;;;3.88;2.95;;;26.50;91.40;;;;;;5076033;28;20665;-79
2022/07/11 11:37:07;;;;;;;4.57;3.50;;;27.20;90.20;;;;;;5075905;28;20207;-79
2022/07/11 11:39:38;;;;;;;3.25;2.97;;;26.80;89.60;;;;;;5075940;28;20232;-79
2022/07/11 11:42:11;;;;;;;3.80;2.80;;;27.10;87.30;;;;;;5077174;28;20651;-79
2022/07/11 11:44:53;;;;;;;3.28;2.65;;;26.50;87.70;;;;;;5078401;28;20714;-78
2022/07/11 11:47:20;;;;;;;3.25;3.05;;;25.70;88.30;;;;;;5078347;28;20205;-77
2022/07/11 11:49:49;;;;;;;3.85;3.55;;;24.40;91.30;;;;;;5076555;28;20197;-80
2022/07/11 11:52:16;;;;;;;4.00;3.70;;;22.80;97.00;;;;;;5076159;28;20193;-78
2022/07/11 11:54:45;;;;;;;4.40;4.10;;;21.90;99.90;;;;;;5075760;28;20745;-79
2022/07/11 11:57:12;;;;;;;4.38;3.97;;;21.00;99.90;;;;;;5075720;28;20201;-79
2022/07/11 11:59:39;;;;;;;4.30;3.90;;;20.90;99.90;;;;;;5075692;28;20200;-79
2022/07/11 12:02:07;;;;;;;4.47;4.07;;;20.80;99.90;;;;;;5075466;28;20603;-78
2022/07/11 12:04:36;;;;;;;5.47;4.35;;;21.10;99.90;;;;;;5075664;28;20228;-79
2022/07/11 12:07:05;;;;;;;5.60;4.20;;;21.30;99.90;;;;;;5075486;28;20232;-79
2022/07/11 12:09:47;;;;;;;4.05;3.65;;;21.80;99.90;;;;;;5075478;28;20652;-79
2022/07/11 12:15:04;;;;;;;3.72;3.33;;;22.80;99.90;;;;;;5075401;28;20200;-78
2022/07/11 12:17:32;;;;;;;5.22;3.58;;;23.10;99.90;;;;;;5075447;28;20568;-80
2022/07/11 12:19:58;;;;;;;3.92;3.60;;;22.90;99.90;;;;;;5075166;28;20652;-79
2022/07/11 12:22:27;;;;;;;5.32;4.13;;;22.40;99.90;;;;;;5074827;28;20200;-80
2022/07/11 12:24:54;;;;;;;5.82;3.97;;;21.70;99.90;;;;;;5074977;28;20236;-80
2022/07/11 12:27:22;;;;;;;4.50;4.10;;;21.10;99.90;;;;;;5075295;28;20197;-80
2022/07/11 12:29:51;;;;;;;4.18;3.88;;;20.60;99.90;;;;;;5075305;28;20322;-79
2022/07/11 12:32:18;;;;;;;4.70;4.20;;;20.10;99.90;;;;;;5075447;28;20224;-79
2022/07/11 12:34:47;;;;;;;4.25;3.55;;;19.90;99.90;;;;;;5074806;28;20652;-79
2022/07/11 12:37:16;;;;;;;4.53;3.75;;;19.60;99.90;;;;;;5074946;28;20204;-79
2022/07/11 12:39:49;;;;;;;4.93;4.40;;;19.70;99.90;;;;;;5074630;28;20240;-79
2022/07/11 12:42:25;;;;;;;5.00;4.60;;;19.60;99.90;;;;;;5075031;28;20204;-79
2022/07/11 12:44:59;;;;;;;4.47;4.07;;;20.00;99.90;;;;;;5074875;28;20294;-79
2022/07/11 12:47:28;;;;;;;4.88;4.47;;;20.40;99.90;;;;;;5074973;28;20287;-79
2022/07/11 12:49:57;;;;;;;5.10;4.30;;;21.10;99.90;;;;;;5074608;28;20250;-79
2022/07/11 12:52:24;;;;;;;5.43;4.85;;;21.60;99.90;;;;;;5074956;28;20255;-79
2022/07/11 12:54:52;;;;;;;5.32;4.60;;;22.30;99.90;;;;;;5074374;28;20572;-79
2022/07/11 12:57:22;;;;;;;4.50;4.10;;;22.10;99.90;;;;;;5074839;28;20287;-79
2022/07/11 12:59:48;;;;;;;4.35;4.05;;;22.30;99.90;;;;;;5074894;28;20200;-79
2022/07/11 13:02:15;;;;;;;4.18;3.80;;;22.70;99.90;;;;;;5074449;28;20695;-79